sensor_id;sensor_type;location;lat;lon;timestamp;pressure;altitude;pressure_sealevel;temperature;humidity
56604;BME280;42486;47.478;19.036;2023-03-21T00:02:20;100206.84;;;11.83;80.97
56604;BME280;42486;47.478;19.036;2023-03-21T00:05:25;100204.25;;;11.83;81.09
56604;BME280;42486;47.478;19.036;2023-03-21T00:08:27;100204.72;;;12.00;80.19
56604;BME280;42486;47.478;19.036;2023-03-21T00:11:30;100196.91;;;12.09;79.52
56604;BME280;42486;47.478;19.036;2023-03-21T00:14:32;100196.87;;;12.21;78.93
56604;BME280;42486;47.478;19.036;2023-03-21T00:17:35;100191.62;;;12.21;78.79
56604;BME280;42486;47.478;19.036;2023-03-21T00:20:40;100192.28;;;12.13;79.33
56604;BME280;42486;47.478;19.036;2023-03-21T00:23:43;100187.06;;;12.02;79.62
56604;BME280;42486;47.478;19.036;2023-03-21T00:26:48;100182.28;;;12.07;79.54
56604;BME280;42486;47.478;19.036;2023-03-21T00:29:51;100179.34;;;12.00;79.96
56604;BME280;42486;47.478;19.036;2023-03-21T00:32:53;100171.16;;;11.94;80.47
56604;BME280;42486;47.478;19.036;2023-03-21T00:35:57;100172.37;;;11.89;80.84
56604;BME280;42486;47.478;19.036;2023-03-21T00:39:06;100170.66;;;12.00;80.34
56604;BME280;42486;47.478;19.036;2023-03-21T00:42:09;100166.19;;;12.11;79.61
56604;BME280;42486;47.478;19.036;2023-03-21T00:45:11;100165.13;;;12.14;79.37
56604;BME280;42486;47.478;19.036;2023-03-21T00:48:14;100158.34;;;12.11;79.42
56604;BME280;42486;47.478;19.036;2023-03-21T00:51:18;100158.34;;;11.79;81.13
56604;BME280;42486;47.478;19.036;2023-03-21T00:54:27;100158.00;;;11.73;81.64
56604;BME280;42486;47.478;19.036;2023-03-21T00:57:30;100150.56;;;11.57;82.68
56604;BME280;42486;47.478;19.036;2023-03-21T01:00:40;100161.06;;;11.45;83.42
56604;BME280;42486;47.478;19.036;2023-03-21T01:03:43;100154.22;;;11.33;84.14
56604;BME280;42486;47.478;19.036;2023-03-21T01:06:52;100152.94;;;11.28;84.39
56604;BME280;42486;47.478;19.036;2023-03-21T01:09:55;100156.03;;;11.21;84.83
56604;BME280;42486;47.478;19.036;2023-03-21T01:12:57;100152.84;;;11.07;85.95
56604;BME280;42486;47.478;19.036;2023-03-21T01:16:00;100152.37;;;11.01;86.38
56604;BME280;42486;47.478;19.036;2023-03-21T01:19:04;100154.16;;;11.01;86.47
56604;BME280;42486;47.478;19.036;2023-03-21T01:22:15;100155.84;;;10.91;87.16
56604;BME280;42486;47.478;19.036;2023-03-21T01:25:17;100151.22;;;10.83;87.58
56604;BME280;42486;47.478;19.036;2023-03-21T01:28:26;100149.75;;;10.79;88.14
56604;BME280;42486;47.478;19.036;2023-03-21T01:31:30;100150.50;;;10.70;88.87
56604;BME280;42486;47.478;19.036;2023-03-21T01:34:33;100158.19;;;10.71;88.90
56604;BME280;42486;47.478;19.036;2023-03-21T01:37:35;100151.81;;;10.64;89.26
56604;BME280;42486;47.478;19.036;2023-03-21T01:40:38;100152.72;;;10.63;89.10
56604;BME280;42486;47.478;19.036;2023-03-21T01:43:41;100155.00;;;10.56;89.77
56604;BME280;42486;47.478;19.036;2023-03-21T01:46:47;100155.00;;;10.45;90.51
56604;BME280;42486;47.478;19.036;2023-03-21T01:50:10;100156.28;;;10.40;90.95
56604;BME280;42486;47.478;19.036;2023-03-21T01:53:13;100159.50;;;10.43;90.85
56604;BME280;42486;47.478;19.036;2023-03-21T01:56:18;100157.38;;;10.48;90.54
56604;BME280;42486;47.478;19.036;2023-03-21T02:02:55;100162.69;;;10.58;89.86
56604;BME280;42486;47.478;19.036;2023-03-21T02:06:13;100155.97;;;10.67;89.37
56604;BME280;42486;47.478;19.036;2023-03-21T02:09:19;100166.63;;;10.64;89.59
56604;BME280;42486;47.478;19.036;2023-03-21T02:12:23;100161.78;;;10.59;89.81
56604;BME280;42486;47.478;19.036;2023-03-21T02:15:27;100157.00;;;10.53;90.26
56604;BME280;42486;47.478;19.036;2023-03-21T02:31:17;100151.28;;;10.36;92.00
56604;BME280;42486;47.478;19.036;2023-03-21T02:40:52;100157.47;;;10.58;89.66
56604;BME280;42486;47.478;19.036;2023-03-21T02:44:15;100159.84;;;10.50;90.09
56604;BME280;42486;47.478;19.036;2023-03-21T02:47:36;100159.97;;;10.48;90.01
56604;BME280;42486;47.478;19.036;2023-03-21T02:50:50;100163.41;;;10.49;90.14
56604;BME280;42486;47.478;19.036;2023-03-21T02:53:55;100162.94;;;10.44;90.62
56604;BME280;42486;47.478;19.036;2023-03-21T02:57:19;100157.00;;;10.42;90.18
56604;BME280;42486;47.478;19.036;2023-03-21T03:00:27;100159.84;;;10.39;90.65
56604;BME280;42486;47.478;19.036;2023-03-21T03:03:30;100160.81;;;10.49;89.17
56604;BME280;42486;47.478;19.036;2023-03-21T03:13:19;100160.72;;;10.73;86.38
56604;BME280;42486;47.478;19.036;2023-03-21T03:16:27;100163.66;;;10.79;86.21
56604;BME280;42486;47.478;19.036;2023-03-21T03:19:43;100159.06;;;10.72;86.49
56604;BME280;42486;47.478;19.036;2023-03-21T03:23:52;100163.81;;;10.67;86.50
56604;BME280;42486;47.478;19.036;2023-03-21T03:26:33;100159.41;;;10.67;86.16
56604;BME280;42486;47.478;19.036;2023-03-21T03:29:36;100151.56;;;10.67;86.04
56604;BME280;42486;47.478;19.036;2023-03-21T03:35:49;100163.91;;;10.65;86.31
56604;BME280;42486;47.478;19.036;2023-03-21T03:39:10;100154.66;;;10.61;86.48
56604;BME280;42486;47.478;19.036;2023-03-21T03:45:36;100152.37;;;10.68;86.32
56604;BME280;42486;47.478;19.036;2023-03-21T03:48:47;100153.22;;;10.68;85.93
56604;BME280;42486;47.478;19.036;2023-03-21T03:52:02;100154.75;;;10.71;85.73
56604;BME280;42486;47.478;19.036;2023-03-21T03:55:09;100150.97;;;10.75;85.45
56604;BME280;42486;47.478;19.036;2023-03-21T03:58:16;100153.81;;;10.72;85.55
56604;BME280;42486;47.478;19.036;2023-03-21T04:01:27;100159.63;;;10.75;85.32
56604;BME280;42486;47.478;19.036;2023-03-21T04:04:30;100161.44;;;10.75;85.32
56604;BME280;42486;47.478;19.036;2023-03-21T04:07:33;100160.81;;;10.71;85.49
56604;BME280;42486;47.478;19.036;2023-03-21T04:10:35;100158.91;;;10.62;85.99
56604;BME280;42486;47.478;19.036;2023-03-21T04:13:40;100160.72;;;10.62;86.16
56604;BME280;42486;47.478;19.036;2023-03-21T04:16:42;100163.56;;;10.58;86.10
56604;BME280;42486;47.478;19.036;2023-03-21T04:19:45;100165.69;;;10.53;86.25
56604;BME280;42486;47.478;19.036;2023-03-21T04:22:47;100164.62;;;10.56;86.22
56604;BME280;42486;47.478;19.036;2023-03-21T04:25:50;100168.75;;;10.47;87.25
56604;BME280;42486;47.478;19.036;2023-03-21T04:28:58;100165.87;;;10.39;87.85
56604;BME280;42486;47.478;19.036;2023-03-21T04:32:04;100164.72;;;10.32;88.41
56604;BME280;42486;47.478;19.036;2023-03-21T04:35:21;100165.87;;;10.28;88.61
56604;BME280;42486;47.478;19.036;2023-03-21T04:38:25;100161.44;;;10.17;89.63
56604;BME280;42486;47.478;19.036;2023-03-21T04:41:33;100154.91;;;10.11;89.87
56604;BME280;42486;47.478;19.036;2023-03-21T04:44:38;100162.00;;;10.09;90.08
56604;BME280;42486;47.478;19.036;2023-03-21T04:47:40;100161.91;;;10.11;90.19
56604;BME280;42486;47.478;19.036;2023-03-21T04:50:45;100150.72;;;9.98;91.20
56604;BME280;42486;47.478;19.036;2023-03-21T04:53:47;100148.69;;;10.01;90.92
56604;BME280;42486;47.478;19.036;2023-03-21T04:56:50;100147.16;;;9.99;91.35
56604;BME280;42486;47.478;19.036;2023-03-21T04:59:53;100144.91;;;10.05;90.95
56604;BME280;42486;47.478;19.036;2023-03-21T05:02:56;100151.91;;;10.05;90.69
56604;BME280;42486;47.478;19.036;2023-03-21T05:05:59;100156.63;;;10.00;91.12
56604;BME280;42486;47.478;19.036;2023-03-21T05:09:04;100163.53;;;10.01;90.91
56604;BME280;42486;47.478;19.036;2023-03-21T05:12:08;100164.94;;;10.05;90.69
56604;BME280;42486;47.478;19.036;2023-03-21T05:15:11;100164.84;;;10.06;90.66
56604;BME280;42486;47.478;19.036;2023-03-21T05:18:13;100177.75;;;10.08;90.60
56604;BME280;42486;47.478;19.036;2023-03-21T05:21:16;100170.78;;;10.08;90.73
56604;BME280;42486;47.478;19.036;2023-03-21T05:24:20;100171.16;;;10.15;90.36
56604;BME280;42486;47.478;19.036;2023-03-21T05:27:23;100174.47;;;10.17;90.20
56604;BME280;42486;47.478;19.036;2023-03-21T05:30:38;100175.50;;;10.27;89.70
56604;BME280;42486;47.478;19.036;2023-03-21T05:33:41;100174.69;;;10.38;89.18
56604;BME280;42486;47.478;19.036;2023-03-21T05:36:43;100182.28;;;10.52;88.03
56604;BME280;42486;47.478;19.036;2023-03-21T05:39:46;100185.87;;;10.74;86.52
56604;BME280;42486;47.478;19.036;2023-03-21T05:42:48;100192.53;;;10.89;85.65
56604;BME280;42486;47.478;19.036;2023-03-21T05:45:51;100195.03;;;11.13;84.43
56604;BME280;42486;47.478;19.036;2023-03-21T05:48:54;100205.25;;;11.28;83.20
56604;BME280;42486;47.478;19.036;2023-03-21T05:51:56;100203.53;;;11.49;82.25
56604;BME280;42486;47.478;19.036;2023-03-21T05:54:59;100199.34;;;12.01;79.61
56604;BME280;42486;47.478;19.036;2023-03-21T05:58:01;100201.72;;;12.25;78.37
56604;BME280;42486;47.478;19.036;2023-03-21T06:01:04;100202.41;;;12.06;78.90
56604;BME280;42486;47.478;19.036;2023-03-21T06:04:07;100203.78;;;11.89;79.17
56604;BME280;42486;47.478;19.036;2023-03-21T06:07:10;100210.19;;;11.85;79.13
56604;BME280;42486;47.478;19.036;2023-03-21T06:10:12;100208.66;;;11.83;79.80
56604;BME280;42486;47.478;19.036;2023-03-21T06:13:15;100211.75;;;11.88;78.74
56604;BME280;42486;47.478;19.036;2023-03-21T06:16:17;100204.56;;;12.01;78.06
56604;BME280;42486;47.478;19.036;2023-03-21T06:19:20;100211.53;;;12.12;78.80
56604;BME280;42486;47.478;19.036;2023-03-21T06:22:24;100210.72;;;12.32;76.54
56604;BME280;42486;47.478;19.036;2023-03-21T06:25:27;100214.22;;;12.94;73.72
56604;BME280;42486;47.478;19.036;2023-03-21T06:28:29;100214.72;;;13.09;72.58
56604;BME280;42486;47.478;19.036;2023-03-21T06:31:32;100211.41;;;14.25;68.13
56604;BME280;42486;47.478;19.036;2023-03-21T06:34:35;100222.28;;;16.78;57.44
56604;BME280;42486;47.478;19.036;2023-03-21T06:37:40;100220.75;;;16.23;56.85
56604;BME280;42486;47.478;19.036;2023-03-21T06:40:44;100224.34;;;15.13;61.07
56604;BME280;42486;47.478;19.036;2023-03-21T06:43:47;100216.44;;;14.95;61.70
56604;BME280;42486;47.478;19.036;2023-03-21T06:46:50;100222.44;;;14.68;63.03
56604;BME280;42486;47.478;19.036;2023-03-21T06:49:52;100221.25;;;14.04;66.09
56604;BME280;42486;47.478;19.036;2023-03-21T06:52:55;100216.94;;;13.64;67.68
56604;BME280;42486;47.478;19.036;2023-03-21T06:55:58;100217.78;;;13.74;67.93
56604;BME280;42486;47.478;19.036;2023-03-21T06:59:01;100230.34;;;13.61;69.17
56604;BME280;42486;47.478;19.036;2023-03-21T07:02:04;100223.75;;;13.86;67.66
56604;BME280;42486;47.478;19.036;2023-03-21T07:05:07;100236.63;;;14.94;63.74
56604;BME280;42486;47.478;19.036;2023-03-21T07:08:11;100243.72;;;19.23;49.20
56604;BME280;42486;47.478;19.036;2023-03-21T07:11:15;100252.91;;;20.97;43.04
56604;BME280;42486;47.478;19.036;2023-03-21T07:14:17;100240.47;;;17.15;52.75
56604;BME280;42486;47.478;19.036;2023-03-21T07:17:20;100241.38;;;18.48;50.38
56604;BME280;42486;47.478;19.036;2023-03-21T07:20:23;100249.06;;;19.46;46.23
56604;BME280;42486;47.478;19.036;2023-03-21T07:23:36;100252.72;;;22.43;40.49
56604;BME280;42486;47.478;19.036;2023-03-21T07:26:39;100241.72;;;18.78;46.53
56604;BME280;42486;47.478;19.036;2023-03-21T07:29:53;100240.56;;;16.97;51.88
56604;BME280;42486;47.478;19.036;2023-03-21T07:32:57;100238.50;;;17.17;52.61
56604;BME280;42486;47.478;19.036;2023-03-21T07:36:01;100235.50;;;15.98;55.37
56604;BME280;42486;47.478;19.036;2023-03-21T07:39:19;100241.44;;;15.64;57.03
56604;BME280;42486;47.478;19.036;2023-03-21T07:42:23;100238.59;;;15.75;57.39
56604;BME280;42486;47.478;19.036;2023-03-21T07:45:26;100232.59;;;15.55;59.12
56604;BME280;42486;47.478;19.036;2023-03-21T07:48:31;100236.34;;;15.80;57.80
56604;BME280;42486;47.478;19.036;2023-03-21T07:51:40;100227.84;;;15.13;58.45
56604;BME280;42486;47.478;19.036;2023-03-21T07:54:43;100226.56;;;15.17;59.57
56604;BME280;42486;47.478;19.036;2023-03-21T07:57:48;100224.69;;;15.37;59.97
56604;BME280;42486;47.478;19.036;2023-03-21T08:00:52;100229.72;;;15.49;59.02
56604;BME280;42486;47.478;19.036;2023-03-21T08:03:57;100221.97;;;15.75;56.09
56604;BME280;42486;47.478;19.036;2023-03-21T08:07:06;100221.06;;;15.38;57.21
56604;BME280;42486;47.478;19.036;2023-03-21T08:10:08;100223.84;;;16.00;57.47
56604;BME280;42486;47.478;19.036;2023-03-21T08:13:12;100223.66;;;16.38;54.87
56604;BME280;42486;47.478;19.036;2023-03-21T08:16:19;100219.38;;;16.37;53.99
56604;BME280;42486;47.478;19.036;2023-03-21T08:19:22;100222.84;;;16.63;53.33
56604;BME280;42486;47.478;19.036;2023-03-21T08:22:25;100225.59;;;16.80;52.52
56604;BME280;42486;47.478;19.036;2023-03-21T08:25:27;100220.63;;;16.77;51.06
56604;BME280;42486;47.478;19.036;2023-03-21T08:28:30;100231.53;;;17.08;51.56
56604;BME280;42486;47.478;19.036;2023-03-21T08:31:32;100226.75;;;17.11;49.71
56604;BME280;42486;47.478;19.036;2023-03-21T08:34:35;100228.97;;;17.24;48.89
56604;BME280;42486;47.478;19.036;2023-03-21T08:37:40;100229.81;;;17.33;48.80
56604;BME280;42486;47.478;19.036;2023-03-21T08:40:42;100227.06;;;17.51;48.73
56604;BME280;42486;47.478;19.036;2023-03-21T08:43:46;100237.94;;;17.39;49.29
56604;BME280;42486;47.478;19.036;2023-03-21T08:46:53;100239.56;;;17.32;48.82
56604;BME280;42486;47.478;19.036;2023-03-21T08:49:57;100232.66;;;17.39;48.74
56604;BME280;42486;47.478;19.036;2023-03-21T08:53:00;100229.25;;;17.55;48.81
56604;BME280;42486;47.478;19.036;2023-03-21T08:59:35;100237.81;;;16.81;49.41
56604;BME280;42486;47.478;19.036;2023-03-21T09:02:38;100234.63;;;16.51;50.63
56604;BME280;42486;47.478;19.036;2023-03-21T09:05:40;100237.69;;;16.64;51.63
56604;BME280;42486;47.478;19.036;2023-03-21T09:08:46;100241.38;;;16.98;50.08
56604;BME280;42486;47.478;19.036;2023-03-21T09:11:49;100239.72;;;16.70;49.47
56604;BME280;42486;47.478;19.036;2023-03-21T09:14:53;100241.38;;;16.98;49.02
56604;BME280;42486;47.478;19.036;2023-03-21T09:17:56;100234.00;;;17.09;48.35
56604;BME280;42486;47.478;19.036;2023-03-21T09:20:59;100236.38;;;16.86;48.28
56604;BME280;42486;47.478;19.036;2023-03-21T09:24:02;100238.72;;;16.71;48.53
56604;BME280;42486;47.478;19.036;2023-03-21T09:27:07;100235.62;;;16.50;48.79
56604;BME280;42486;47.478;19.036;2023-03-21T09:30:11;100241.88;;;16.75;49.59
56604;BME280;42486;47.478;19.036;2023-03-21T09:33:14;100236.97;;;16.80;47.95
56604;BME280;42486;47.478;19.036;2023-03-21T09:36:22;100249.41;;;16.88;48.09
56604;BME280;42486;47.478;19.036;2023-03-21T09:39:27;100244.09;;;16.80;48.03
56604;BME280;42486;47.478;19.036;2023-03-21T09:42:43;100248.47;;;16.97;48.48
56604;BME280;42486;47.478;19.036;2023-03-21T09:46:12;100243.69;;;16.74;48.61
56604;BME280;42486;47.478;19.036;2023-03-21T09:49:25;100243.19;;;16.71;48.35
56604;BME280;42486;47.478;19.036;2023-03-21T09:52:50;100235.41;;;16.69;48.14
56604;BME280;42486;47.478;19.036;2023-03-21T09:55:55;100234.88;;;16.84;46.57
56604;BME280;42486;47.478;19.036;2023-03-21T09:58:57;100228.09;;;16.81;47.02
56604;BME280;42486;47.478;19.036;2023-03-21T10:02:01;100226.66;;;16.69;47.55
56604;BME280;42486;47.478;19.036;2023-03-21T10:05:10;100220.59;;;16.94;47.15
56604;BME280;42486;47.478;19.036;2023-03-21T10:08:31;100235.81;;;16.57;47.83
56604;BME280;42486;47.478;19.036;2023-03-21T10:14:44;100228.97;;;16.46;48.59
56604;BME280;42486;47.478;19.036;2023-03-21T10:17:50;100220.37;;;16.36;48.51
56604;BME280;42486;47.478;19.036;2023-03-21T10:20:54;100220.94;;;16.73;48.29
56604;BME280;42486;47.478;19.036;2023-03-21T10:23:57;100222.72;;;16.99;47.26
56604;BME280;42486;47.478;19.036;2023-03-21T10:27:00;100218.09;;;16.93;47.33
56604;BME280;42486;47.478;19.036;2023-03-21T10:30:04;100219.34;;;16.81;46.60
56604;BME280;42486;47.478;19.036;2023-03-21T10:33:10;100211.94;;;16.58;47.70
56604;BME280;42486;47.478;19.036;2023-03-21T10:36:15;100209.69;;;16.71;47.40
56604;BME280;42486;47.478;19.036;2023-03-21T10:42:29;100204.41;;;17.32;44.44
56604;BME280;42486;47.478;19.036;2023-03-21T10:45:34;100212.16;;;17.42;43.09
56604;BME280;42486;47.478;19.036;2023-03-21T10:48:39;100208.56;;;17.43;42.36
56604;BME280;42486;47.478;19.036;2023-03-21T10:51:52;100203.84;;;17.20;41.04
56604;BME280;42486;47.478;19.036;2023-03-21T10:58:23;100204.31;;;17.58;39.57
56604;BME280;42486;47.478;19.036;2023-03-21T11:01:33;100204.22;;;17.33;40.15
56604;BME280;42486;47.478;19.036;2023-03-21T11:04:37;100196.22;;;17.09;41.37
56604;BME280;42486;47.478;19.036;2023-03-21T11:07:39;100196.81;;;17.29;41.76
56604;BME280;42486;47.478;19.036;2023-03-21T11:10:49;100183.44;;;17.38;43.29
56604;BME280;42486;47.478;19.036;2023-03-21T11:13:56;100182.91;;;17.19;43.93
56604;BME280;42486;47.478;19.036;2023-03-21T11:17:00;100175.41;;;17.56;42.42
56604;BME280;42486;47.478;19.036;2023-03-21T11:20:04;100176.47;;;17.96;41.59
56604;BME280;42486;47.478;19.036;2023-03-21T11:23:08;100169.50;;;18.20;41.33
56604;BME280;42486;47.478;19.036;2023-03-21T11:26:16;100163.91;;;17.82;40.53
56604;BME280;42486;47.478;19.036;2023-03-21T11:30:12;100161.94;;;18.09;39.66
56604;BME280;42486;47.478;19.036;2023-03-21T11:32:43;100164.28;;;17.36;42.19
56604;BME280;42486;47.478;19.036;2023-03-21T11:35:59;100168.53;;;17.13;42.76
56604;BME280;42486;47.478;19.036;2023-03-21T11:42:25;100153.69;;;17.20;42.77
56604;BME280;42486;47.478;19.036;2023-03-21T11:48:38;100141.16;;;17.22;41.77
56604;BME280;42486;47.478;19.036;2023-03-21T11:57:54;100144.56;;;18.06;38.87
56604;BME280;42486;47.478;19.036;2023-03-21T12:11:01;100118.59;;;18.18;39.39
56604;BME280;42486;47.478;19.036;2023-03-21T12:23:28;100106.50;;;18.32;41.06
56604;BME280;42486;47.478;19.036;2023-03-21T12:39:40;100110.22;;;16.90;45.13
56604;BME280;42486;47.478;19.036;2023-03-21T12:46:25;100102.44;;;16.54;45.05
56604;BME280;42486;47.478;19.036;2023-03-21T12:52:31;100101.19;;;16.32;46.55
56604;BME280;42486;47.478;19.036;2023-03-21T12:55:36;100102.63;;;16.00;46.26
56604;BME280;42486;47.478;19.036;2023-03-21T12:58:43;100099.69;;;16.03;45.99
56604;BME280;42486;47.478;19.036;2023-03-21T13:01:47;100090.59;;;15.98;46.31
56604;BME280;42486;47.478;19.036;2023-03-21T13:08:04;100088.66;;;16.68;45.40
56604;BME280;42486;47.478;19.036;2023-03-21T13:11:09;100074.53;;;17.53;42.98
56604;BME280;42486;47.478;19.036;2023-03-21T13:14:16;100066.16;;;18.30;42.18
56604;BME280;42486;47.478;19.036;2023-03-21T13:17:23;100054.06;;;18.43;40.01
56604;BME280;42486;47.478;19.036;2023-03-21T13:20:41;100062.94;;;18.03;41.15
56604;BME280;42486;47.478;19.036;2023-03-21T13:24:02;100057.03;;;17.93;41.19
56604;BME280;42486;47.478;19.036;2023-03-21T13:27:17;100054.03;;;17.47;41.45
56604;BME280;42486;47.478;19.036;2023-03-21T13:30:23;100059.75;;;17.01;39.47
56604;BME280;42486;47.478;19.036;2023-03-21T13:33:28;100061.09;;;16.97;39.42
56604;BME280;42486;47.478;19.036;2023-03-21T13:36:31;100058.94;;;16.92;39.52
56604;BME280;42486;47.478;19.036;2023-03-21T13:39:41;100053.97;;;16.89;40.12
56604;BME280;42486;47.478;19.036;2023-03-21T13:42:47;100049.44;;;16.73;41.13
56604;BME280;42486;47.478;19.036;2023-03-21T13:45:52;100051.72;;;16.60;42.46
56604;BME280;42486;47.478;19.036;2023-03-21T13:48:57;100052.00;;;16.49;43.34
56604;BME280;42486;47.478;19.036;2023-03-21T13:52:46;100046.03;;;16.39;42.04
56604;BME280;42486;47.478;19.036;2023-03-21T13:55:23;100049.12;;;16.34;40.84
56604;BME280;42486;47.478;19.036;2023-03-21T13:58:33;100048.72;;;16.21;41.59
56604;BME280;42486;47.478;19.036;2023-03-21T14:01:39;100052.03;;;16.23;41.23
56604;BME280;42486;47.478;19.036;2023-03-21T14:04:45;100037.47;;;16.45;41.22
56604;BME280;42486;47.478;19.036;2023-03-21T14:08:06;100038.94;;;16.39;42.05
56604;BME280;42486;47.478;19.036;2023-03-21T14:11:19;100036.78;;;16.77;41.45
56604;BME280;42486;47.478;19.036;2023-03-21T14:14:23;100024.28;;;16.95;41.23
56604;BME280;42486;47.478;19.036;2023-03-21T14:17:29;100024.31;;;17.28;40.15
56604;BME280;42486;47.478;19.036;2023-03-21T14:20:33;100025.81;;;17.47;39.31
56604;BME280;42486;47.478;19.036;2023-03-21T14:23:39;100022.31;;;17.63;38.49
56604;BME280;42486;47.478;19.036;2023-03-21T14:26:46;100007.13;;;17.73;38.83
56604;BME280;42486;47.478;19.036;2023-03-21T14:29:49;100011.13;;;17.61;38.40
56604;BME280;42486;47.478;19.036;2023-03-21T14:32:57;100004.84;;;17.54;39.61
56604;BME280;42486;47.478;19.036;2023-03-21T14:36:11;99996.25;;;17.44;39.66
56604;BME280;42486;47.478;19.036;2023-03-21T14:39:21;99999.22;;;17.57;39.17
56604;BME280;42486;47.478;19.036;2023-03-21T14:42:27;100001.19;;;17.55;39.27
56604;BME280;42486;47.478;19.036;2023-03-21T14:45:35;99997.22;;;17.67;38.73
56604;BME280;42486;47.478;19.036;2023-03-21T14:48:38;99995.41;;;17.68;39.55
56604;BME280;42486;47.478;19.036;2023-03-21T14:51:40;99995.41;;;17.68;40.27
56604;BME280;42486;47.478;19.036;2023-03-21T14:54:44;99994.31;;;17.21;41.11
56604;BME280;42486;47.478;19.036;2023-03-21T14:57:48;100000.75;;;17.19;41.51
56604;BME280;42486;47.478;19.036;2023-03-21T15:00:51;99999.25;;;17.08;41.52
56604;BME280;42486;47.478;19.036;2023-03-21T15:03:54;100010.13;;;17.05;41.72
56604;BME280;42486;47.478;19.036;2023-03-21T15:07:00;100006.16;;;17.01;40.57
56604;BME280;42486;47.478;19.036;2023-03-21T15:10:07;100003.66;;;16.83;40.59
56604;BME280;42486;47.478;19.036;2023-03-21T15:13:14;99999.53;;;16.88;40.64
56604;BME280;42486;47.478;19.036;2023-03-21T15:16:17;99998.56;;;16.81;40.38
56604;BME280;42486;47.478;19.036;2023-03-21T15:19:22;99994.66;;;16.67;40.76
56604;BME280;42486;47.478;19.036;2023-03-21T15:25:29;99992.22;;;16.66;41.46
56604;BME280;42486;47.478;19.036;2023-03-21T15:28:34;99989.88;;;16.55;41.77
56604;BME280;42486;47.478;19.036;2023-03-21T15:31:38;99978.78;;;16.43;41.77
56604;BME280;42486;47.478;19.036;2023-03-21T15:34:41;99990.91;;;16.27;43.18
56604;BME280;42486;47.478;19.036;2023-03-21T15:37:51;99987.59;;;16.17;44.01
56604;BME280;42486;47.478;19.036;2023-03-21T15:44:35;99994.25;;;16.03;45.65
56604;BME280;42486;47.478;19.036;2023-03-21T15:47:38;99996.16;;;15.85;46.62
56604;BME280;42486;47.478;19.036;2023-03-21T15:50:46;99990.81;;;15.77;47.23
56604;BME280;42486;47.478;19.036;2023-03-21T15:53:52;99994.37;;;15.68;47.48
56604;BME280;42486;47.478;19.036;2023-03-21T15:56:56;99995.19;;;15.68;47.73
56604;BME280;42486;47.478;19.036;2023-03-21T16:00:01;99982.28;;;15.57;47.48
56604;BME280;42486;47.478;19.036;2023-03-21T16:03:12;99987.63;;;15.47;48.08
56604;BME280;42486;47.478;19.036;2023-03-21T16:06:20;99985.50;;;15.43;48.37
56604;BME280;42486;47.478;19.036;2023-03-21T16:09:25;99982.31;;;15.39;48.56
56604;BME280;42486;47.478;19.036;2023-03-21T16:12:27;99985.87;;;15.30;48.02
56604;BME280;42486;47.478;19.036;2023-03-21T16:15:30;99987.09;;;15.17;48.02
56604;BME280;42486;47.478;19.036;2023-03-21T16:18:33;99988.97;;;15.07;48.33
56604;BME280;42486;47.478;19.036;2023-03-21T16:21:35;99989.56;;;15.01;48.81
56604;BME280;42486;47.478;19.036;2023-03-21T16:24:41;99991.31;;;14.92;48.78
56604;BME280;42486;47.478;19.036;2023-03-21T16:27:44;99993.00;;;14.84;49.17
56604;BME280;42486;47.478;19.036;2023-03-21T16:30:46;99988.97;;;14.71;49.17
56604;BME280;42486;47.478;19.036;2023-03-21T16:33:49;99997.72;;;14.62;49.44
56604;BME280;42486;47.478;19.036;2023-03-21T16:36:52;99989.75;;;14.54;49.78
56604;BME280;42486;47.478;19.036;2023-03-21T16:39:54;99985.06;;;14.48;49.92
56604;BME280;42486;47.478;19.036;2023-03-21T16:42:57;99996.31;;;14.40;50.28
56604;BME280;42486;47.478;19.036;2023-03-21T16:46:00;99995.94;;;14.25;51.17
56604;BME280;42486;47.478;19.036;2023-03-21T16:49:02;100001.41;;;14.14;51.28
56604;BME280;42486;47.478;19.036;2023-03-21T16:52:05;100001.59;;;14.03;51.68
56604;BME280;42486;47.478;19.036;2023-03-21T16:55:07;100004.09;;;13.95;52.05
56604;BME280;42486;47.478;19.036;2023-03-21T16:58:10;100008.25;;;13.87;52.64
56604;BME280;42486;47.478;19.036;2023-03-21T17:01:17;100010.75;;;13.89;52.41
56604;BME280;42486;47.478;19.036;2023-03-21T17:04:20;100010.25;;;13.76;53.20
56604;BME280;42486;47.478;19.036;2023-03-21T17:07:23;100017.31;;;13.65;53.71
56604;BME280;42486;47.478;19.036;2023-03-21T17:10:27;100018.28;;;13.55;54.13
56604;BME280;42486;47.478;19.036;2023-03-21T17:13:29;100024.66;;;13.52;54.35
56604;BME280;42486;47.478;19.036;2023-03-21T17:16:31;100019.41;;;13.52;54.77
56604;BME280;42486;47.478;19.036;2023-03-21T17:19:34;100020.25;;;13.43;54.70
56604;BME280;42486;47.478;19.036;2023-03-21T17:22:37;100023.53;;;13.26;55.08
56604;BME280;42486;47.478;19.036;2023-03-21T17:25:39;100022.56;;;13.17;55.54
56604;BME280;42486;47.478;19.036;2023-03-21T17:28:42;100021.31;;;13.21;55.30
56604;BME280;42486;47.478;19.036;2023-03-21T17:31:44;100028.75;;;13.16;55.41
56604;BME280;42486;47.478;19.036;2023-03-21T17:34:49;100021.03;;;13.14;55.60
56604;BME280;42486;47.478;19.036;2023-03-21T17:37:54;100025.06;;;13.09;55.55
56604;BME280;42486;47.478;19.036;2023-03-21T17:40:59;100026.69;;;13.00;55.79
56604;BME280;42486;47.478;19.036;2023-03-21T17:44:02;100020.75;;;12.98;56.00
56604;BME280;42486;47.478;19.036;2023-03-21T17:47:04;100025.44;;;12.94;56.11
56604;BME280;42486;47.478;19.036;2023-03-21T17:50:26;100020.59;;;12.90;56.13